createdAt,value
2018-09-19T00:02:21.550Z,5.20
2018-09-19T00:04:49.393Z,5.50
2018-09-19T00:07:17.266Z,5.07
2018-09-19T00:09:45.093Z,4.53
2018-09-19T00:12:12.926Z,4.33
2018-09-19T00:14:40.777Z,4.00
2018-09-19T00:17:08.608Z,5.03
2018-09-19T00:19:36.450Z,4.67
2018-09-19T00:22:04.356Z,3.93
2018-09-19T00:24:32.182Z,4.67
2018-09-19T00:27:00.019Z,4.47
2018-09-19T00:29:27.875Z,4.80
2018-09-19T00:31:55.764Z,4.63
2018-09-19T00:34:23.584Z,4.40
2018-09-19T00:36:51.604Z,4.30
2018-09-19T00:39:19.482Z,4.60
2018-09-19T00:41:47.324Z,5.00
2018-09-19T00:44:15.155Z,4.63
2018-09-19T00:46:43.037Z,4.30
2018-09-19T00:49:10.938Z,4.00
2018-09-19T00:51:38.763Z,4.13
2018-09-19T00:54:06.615Z,4.10
2018-09-19T00:56:34.465Z,4.03
2018-09-19T00:59:02.295Z,4.13
2018-09-19T01:01:30.124Z,3.73
2018-09-19T01:03:57.956Z,3.87
2018-09-19T01:06:25.859Z,3.80
2018-09-19T01:08:53.679Z,3.90
2018-09-19T01:11:21.550Z,3.70
2018-09-19T01:13:49.379Z,3.80
2018-09-19T01:16:17.205Z,4.17
2018-09-19T01:18:45.046Z,3.60
2018-09-19T01:21:12.875Z,4.27
2018-09-19T01:23:40.751Z,3.97
2018-09-19T01:26:09.910Z,3.20
2018-09-19T01:28:38.617Z,3.90
2018-09-19T01:31:07.122Z,3.53
2018-09-19T01:33:34.926Z,4.27
2018-09-19T01:36:02.820Z,3.63
2018-09-19T01:38:30.655Z,3.70
2018-09-19T01:40:58.514Z,3.93
2018-09-19T01:43:27.167Z,4.00
2018-09-19T01:45:54.982Z,3.37
2018-09-19T01:48:22.800Z,4.00
2018-09-19T01:50:50.634Z,3.57
2018-09-19T01:53:18.461Z,4.23
2018-09-19T01:55:46.287Z,4.00
2018-09-19T01:58:14.160Z,4.03
2018-09-19T02:00:42.003Z,4.13
2018-09-19T02:03:09.850Z,4.47
2018-09-19T02:05:37.681Z,4.33
2018-09-19T02:08:05.625Z,4.40
2018-09-19T02:10:33.506Z,3.87
2018-09-19T02:13:01.330Z,4.00
2018-09-19T02:15:29.306Z,4.07
2018-09-19T02:17:57.280Z,4.53
2018-09-19T02:20:25.121Z,4.30
2018-09-19T02:22:53.043Z,4.27
2018-09-19T02:25:20.880Z,4.03
2018-09-19T02:27:48.770Z,4.30
2018-09-19T02:30:16.600Z,4.60
2018-09-19T02:32:44.434Z,4.17
2018-09-19T02:35:12.583Z,4.70
2018-09-19T02:37:40.436Z,4.30
2018-09-19T02:40:08.267Z,4.13
2018-09-19T02:42:36.086Z,4.43
2018-09-19T02:45:04.125Z,4.67
2018-09-19T02:47:31.982Z,4.20
2018-09-19T02:49:59.826Z,5.60
2018-09-19T02:52:27.735Z,4.40
2018-09-19T02:54:55.579Z,4.57
2018-09-19T02:57:23.403Z,3.97
2018-09-19T02:59:51.227Z,4.43
2018-09-19T03:02:19.067Z,4.37
2018-09-19T03:04:46.946Z,4.60
2018-09-19T03:07:14.786Z,4.20
2018-09-19T03:09:42.627Z,4.03
2018-09-19T03:12:10.578Z,4.23
2018-09-19T03:14:38.401Z,4.40
2018-09-19T03:17:06.315Z,4.50
2018-09-19T03:19:34.217Z,5.03
2018-09-19T03:22:02.273Z,4.70
2018-09-19T03:24:30.322Z,4.37
2018-09-19T03:26:58.317Z,3.90
2018-09-19T03:29:26.720Z,4.50
2018-09-19T03:31:54.623Z,4.87
2018-09-19T03:34:22.454Z,4.30
2018-09-19T03:36:50.614Z,4.90
2018-09-19T03:39:18.450Z,5.07
2018-09-19T03:41:46.277Z,4.67
2018-09-19T03:44:14.122Z,4.67
2018-09-19T03:46:41.956Z,4.47
2018-09-19T03:49:10.243Z,4.57
2018-09-19T03:51:38.914Z,4.60
2018-09-19T03:54:07.089Z,4.50
2018-09-19T03:56:34.899Z,5.23
2018-09-19T03:59:02.763Z,4.47
2018-09-19T04:01:30.627Z,5.50
2018-09-19T04:03:58.458Z,5.33
2018-09-19T04:06:26.319Z,4.77
2018-09-19T04:08:54.160Z,5.40
2018-09-19T04:11:22.430Z,5.53
2018-09-19T04:13:50.886Z,4.87
2018-09-19T04:16:19.465Z,5.30
2018-09-19T04:18:47.979Z,5.10
2018-09-19T04:21:16.420Z,5.07
2018-09-19T04:23:45.103Z,5.07
2018-09-19T04:26:13.668Z,4.83
2018-09-19T04:28:42.420Z,4.93
2018-09-19T04:31:10.754Z,4.67
2018-09-19T04:33:39.235Z,4.83
2018-09-19T04:36:07.652Z,5.33
2018-09-19T04:38:36.116Z,4.60
2018-09-19T04:41:04.525Z,4.77
2018-09-19T04:43:32.945Z,5.27
2018-09-19T04:46:01.413Z,5.23
2018-09-19T04:48:29.811Z,5.17
2018-09-19T04:50:58.077Z,4.83
2018-09-19T04:53:26.367Z,4.77
2018-09-19T04:55:55.276Z,5.43
2018-09-19T04:58:23.834Z,5.10
2018-09-19T05:00:52.457Z,5.30
2018-09-19T05:03:20.687Z,5.93
2018-09-19T05:05:49.389Z,5.53
2018-09-19T05:08:18.014Z,5.40
2018-09-19T05:10:46.423Z,5.17
2018-09-19T05:13:15.032Z,5.10
2018-09-19T05:15:43.447Z,5.97
2018-09-19T05:18:11.941Z,5.17
2018-09-19T05:20:40.443Z,4.80
2018-09-19T05:23:09.002Z,5.90
2018-09-19T05:25:37.395Z,5.63
2018-09-19T05:28:06.459Z,5.40
2018-09-19T05:30:35.093Z,5.67
2018-09-19T05:33:03.536Z,5.23
2018-09-19T05:35:32.002Z,5.83
2018-09-19T05:38:00.606Z,6.13
2018-09-19T05:40:29.244Z,5.77
2018-09-19T05:42:57.744Z,5.60
2018-09-19T05:45:26.405Z,6.63
2018-09-19T05:47:54.780Z,6.47
2018-09-19T05:50:23.396Z,6.00
2018-09-19T05:52:52.042Z,6.20
2018-09-19T05:55:20.677Z,6.17
2018-09-19T05:57:49.308Z,6.00
2018-09-19T06:00:18.066Z,5.50
2018-09-19T06:02:46.555Z,5.40
2018-09-19T06:05:15.033Z,5.90
2018-09-19T06:07:43.459Z,5.70
2018-09-19T06:10:12.087Z,5.97
2018-09-19T06:12:40.727Z,5.83
2018-09-19T06:15:09.199Z,5.43
2018-09-19T06:17:37.933Z,5.50
2018-09-19T06:20:06.456Z,5.77
2018-09-19T06:22:34.856Z,5.53
2018-09-19T06:25:03.329Z,6.10
2018-09-19T06:27:31.958Z,6.17
2018-09-19T06:30:00.590Z,6.37
2018-09-19T06:32:29.186Z,6.63
2018-09-19T06:34:57.519Z,6.20
2018-09-19T06:37:25.892Z,6.10
2018-09-19T06:39:54.200Z,5.67
2018-09-19T06:42:22.807Z,6.00
2018-09-19T06:44:51.438Z,6.73
2018-09-19T06:47:20.076Z,6.30
2018-09-19T06:49:48.705Z,5.70
2018-09-19T06:52:17.368Z,5.60
2018-09-19T06:54:45.981Z,6.07
2018-09-19T06:57:14.625Z,6.20
2018-09-19T06:59:43.126Z,6.33
2018-09-19T07:02:11.495Z,6.20
2018-09-19T07:04:40.177Z,6.80
2018-09-19T07:07:08.576Z,7.20
2018-09-19T07:09:37.507Z,6.40
2018-09-19T07:12:05.465Z,6.93
2018-09-19T07:14:34.100Z,6.53
2018-09-19T07:17:02.532Z,7.07
2018-09-19T07:19:31.180Z,6.67
2018-09-19T07:21:59.819Z,6.47
2018-09-19T07:24:28.443Z,8.00
2018-09-19T07:26:56.870Z,7.00
2018-09-19T07:29:25.310Z,6.63
2018-09-19T07:31:53.951Z,6.50
2018-09-19T07:34:22.399Z,6.90
2018-09-19T07:36:51.641Z,7.00
2018-09-19T07:39:20.271Z,5.90
2018-09-19T07:41:48.884Z,6.50
2018-09-19T07:44:17.532Z,6.90
2018-09-19T07:46:46.367Z,6.50
2018-09-19T07:49:14.979Z,6.30
2018-09-19T07:51:43.456Z,6.80
2018-09-19T07:54:12.067Z,11.23
2018-09-19T07:56:40.327Z,7.30
2018-09-19T07:59:08.947Z,6.57
2018-09-19T08:01:37.597Z,5.90
2018-09-19T08:04:06.230Z,6.97
2018-09-19T08:06:34.851Z,6.73
2018-09-19T08:09:03.753Z,5.70
2018-09-19T08:11:32.326Z,5.93
2018-09-19T08:14:00.729Z,5.60
2018-09-19T08:16:29.208Z,8.10
2018-09-19T08:18:57.611Z,7.47
2018-09-19T08:21:26.076Z,6.47
2018-09-19T08:23:54.712Z,6.70
2018-09-19T08:26:23.367Z,6.23
2018-09-19T08:28:51.794Z,6.30
2018-09-19T08:31:20.475Z,7.00
2018-09-19T08:33:49.062Z,6.23
2018-09-19T08:36:16.955Z,6.60
2018-09-19T08:38:45.558Z,6.07
2018-09-19T08:41:14.219Z,5.83
2018-09-19T08:43:42.840Z,5.60
2018-09-19T08:46:10.839Z,5.70
2018-09-19T08:48:39.237Z,5.70
2018-09-19T08:51:07.787Z,5.53
2018-09-19T08:53:36.383Z,6.17
2018-09-19T08:56:04.827Z,5.70
2018-09-19T08:58:33.226Z,5.60
2018-09-19T09:01:01.479Z,6.37
2018-09-19T09:03:29.728Z,5.77
2018-09-19T09:05:58.224Z,5.63
2018-09-19T09:08:26.831Z,5.47
2018-09-19T09:10:55.498Z,5.43
2018-09-19T09:13:24.249Z,6.20
2018-09-19T09:15:52.511Z,5.90
2018-09-19T09:18:20.753Z,6.43
2018-09-19T09:20:49.252Z,6.10
2018-09-19T09:23:17.887Z,5.93
2018-09-19T09:25:46.495Z,5.40
2018-09-19T09:28:15.133Z,4.70
2018-09-19T09:30:43.763Z,5.20
2018-09-19T09:33:12.403Z,4.53
2018-09-19T09:35:40.977Z,4.80
2018-09-19T09:38:09.662Z,5.03
2018-09-19T09:40:38.369Z,4.83
2018-09-19T09:43:06.759Z,5.60
2018-09-19T09:45:35.434Z,5.93
2018-09-19T09:48:04.032Z,5.33
2018-09-19T09:50:32.677Z,5.40
2018-09-19T09:53:01.105Z,5.37
2018-09-19T09:55:28.973Z,5.60
2018-09-19T09:57:57.600Z,4.60
2018-09-19T10:00:44.233Z,4.80
2018-09-19T10:03:13.232Z,4.67
2018-09-19T10:05:41.565Z,4.80
2018-09-19T10:08:09.577Z,5.10
2018-09-19T10:10:38.441Z,4.63
2018-09-19T10:13:06.681Z,3.97
2018-09-19T10:15:35.256Z,4.93
2018-09-19T10:18:04.111Z,4.27
2018-09-19T10:20:32.643Z,5.20
2018-09-19T10:23:01.043Z,4.67
2018-09-19T10:25:29.868Z,4.57
2018-09-19T10:27:58.303Z,4.47
2018-09-19T10:30:26.971Z,4.63
2018-09-19T10:32:55.631Z,5.40
2018-09-19T10:35:24.352Z,5.60
2018-09-19T10:37:52.871Z,4.33
2018-09-19T10:40:21.147Z,4.63
2018-09-19T10:42:49.675Z,4.87
2018-09-19T10:45:18.196Z,4.60
2018-09-19T10:47:46.839Z,5.27
2018-09-19T10:50:15.628Z,5.27
2018-09-19T10:52:44.098Z,4.57
2018-09-19T10:55:12.567Z,4.70
2018-09-19T10:57:41.012Z,4.43
2018-09-19T11:00:09.626Z,5.00
2018-09-19T11:02:38.375Z,4.70
2018-09-19T11:05:06.732Z,4.93
2018-09-19T11:07:35.340Z,4.70
2018-09-19T11:10:03.785Z,4.93
2018-09-19T11:12:32.460Z,4.63
2018-09-19T11:15:01.223Z,4.10
2018-09-19T11:17:29.680Z,4.13
2018-09-19T11:19:58.176Z,3.90
2018-09-19T11:22:26.767Z,4.30
2018-09-19T11:24:55.507Z,4.20
2018-09-19T11:27:24.044Z,3.90
2018-09-19T11:29:52.647Z,4.20
2018-09-19T11:32:21.264Z,4.20
2018-09-19T11:34:49.763Z,4.57
2018-09-19T11:37:18.138Z,4.00
2018-09-19T11:39:46.675Z,3.83
2018-09-19T11:42:15.264Z,3.70
2018-09-19T11:44:43.870Z,3.93
2018-09-19T11:47:12.158Z,4.33
2018-09-19T11:49:40.779Z,4.43
2018-09-19T11:52:09.432Z,3.80
2018-09-19T11:54:38.415Z,3.73
2018-09-19T11:57:06.896Z,3.77
2018-09-19T11:59:35.544Z,4.67
2018-09-19T12:02:04.215Z,3.97
2018-09-19T12:04:32.795Z,4.00
2018-09-19T12:07:01.432Z,3.93
2018-09-19T12:09:30.098Z,4.07
2018-09-19T12:11:57.987Z,3.67
2018-09-19T12:14:26.567Z,3.30
2018-09-19T12:16:55.179Z,3.63
2018-09-19T12:19:23.838Z,3.37
2018-09-19T12:21:52.536Z,3.10
2018-09-19T12:24:21.094Z,3.83
2018-09-19T12:26:49.920Z,3.60
2018-09-19T12:29:18.456Z,3.40
2018-09-19T12:31:46.882Z,3.43
2018-09-19T12:34:15.442Z,3.23
2018-09-19T12:36:44.071Z,3.20
2018-09-19T12:39:12.595Z,4.13
2018-09-19T12:41:41.292Z,3.90
2018-09-19T12:44:10.195Z,3.93
2018-09-19T12:46:38.652Z,3.80
2018-09-19T12:49:07.439Z,3.20
2018-09-19T12:51:35.875Z,3.27
2018-09-19T12:54:04.247Z,3.23
2018-09-19T12:56:32.648Z,3.20
2018-09-19T12:59:02.091Z,3.37
2018-09-19T13:01:30.547Z,3.40
2018-09-19T13:03:59.083Z,3.97
2018-09-19T13:06:27.665Z,4.07
2018-09-19T13:08:56.144Z,3.83
2018-09-19T13:11:24.987Z,3.00
2018-09-19T13:13:53.629Z,3.87
2018-09-19T13:16:22.338Z,3.70
2018-09-19T13:18:50.882Z,3.90
2018-09-19T13:21:19.096Z,3.53
2018-09-19T13:23:47.570Z,3.33
2018-09-19T13:26:16.023Z,3.50
2018-09-19T13:28:44.691Z,3.53
2018-09-19T13:31:13.327Z,4.07
2018-09-19T13:33:41.755Z,3.90
2018-09-19T13:36:10.225Z,3.87
2018-09-19T13:38:38.804Z,3.87
2018-09-19T13:41:07.035Z,3.60
2018-09-19T13:43:35.568Z,3.37
2018-09-19T13:46:04.243Z,3.67
2018-09-19T13:48:32.756Z,3.80
2018-09-19T13:51:16.563Z,3.80
2018-09-19T13:53:45.203Z,3.93
2018-09-19T13:56:13.806Z,3.70
2018-09-19T13:58:42.243Z,3.90
2018-09-19T14:01:10.688Z,4.03
2018-09-19T14:03:39.123Z,3.93
2018-09-19T14:06:07.383Z,2.97
2018-09-19T14:08:36.023Z,4.67
2018-09-19T14:11:05.065Z,3.30
2018-09-19T14:13:33.664Z,3.40
2018-09-19T14:16:02.312Z,3.13
2018-09-19T14:18:30.553Z,3.50
2018-09-19T14:20:58.950Z,3.50
2018-09-19T14:23:27.662Z,3.23
2018-09-19T14:25:56.389Z,3.77
2018-09-19T14:28:24.995Z,3.17
2018-09-19T14:30:53.565Z,3.20
2018-09-19T14:33:22.321Z,3.57
2018-09-19T14:35:51.393Z,3.20
2018-09-19T14:38:20.092Z,3.37
2018-09-19T14:40:48.667Z,7.07
2018-09-19T14:43:17.328Z,4.20
2018-09-19T14:45:45.736Z,3.40
2018-09-19T14:48:14.206Z,3.47
2018-09-19T14:50:42.645Z,3.20
2018-09-19T14:53:11.028Z,3.33
2018-09-19T14:55:39.331Z,3.03
2018-09-19T14:58:08.576Z,3.20
2018-09-19T15:00:37.253Z,3.70
2018-09-19T15:03:06.570Z,3.20
2018-09-19T15:05:35.076Z,3.40
2018-09-19T15:08:03.723Z,3.27
2018-09-19T15:10:32.353Z,3.50
2018-09-19T15:13:00.941Z,3.10
2018-09-19T15:15:29.732Z,3.37
2018-09-19T15:17:58.072Z,3.40
2018-09-19T15:20:26.656Z,3.47
2018-09-19T15:22:55.093Z,3.23
2018-09-19T15:25:23.723Z,3.27
2018-09-19T15:27:52.285Z,3.50
2018-09-19T15:30:20.143Z,3.33
2018-09-19T15:32:48.026Z,3.33
2018-09-19T15:35:17.129Z,3.27
2018-09-19T15:37:45.757Z,3.30
2018-09-19T15:40:14.496Z,3.10
2018-09-19T15:42:43.032Z,3.53
2018-09-19T15:45:11.481Z,2.90
2018-09-19T15:47:40.124Z,3.60
2018-09-19T15:50:08.731Z,3.10
2018-09-19T15:52:37.215Z,3.67
2018-09-19T15:55:05.800Z,3.33
2018-09-19T15:57:34.475Z,3.67
2018-09-19T16:00:03.241Z,3.43
2018-09-19T16:02:31.723Z,3.30
2018-09-19T16:05:00.166Z,3.30
2018-09-19T16:07:28.592Z,2.83
2018-09-19T16:09:57.298Z,3.40
2018-09-19T16:12:25.998Z,2.93
2018-09-19T16:14:54.680Z,3.77
2018-09-19T16:17:23.117Z,3.03
2018-09-19T16:19:51.586Z,3.20
2018-09-19T16:22:20.210Z,3.10
2018-09-19T16:24:48.968Z,3.67
2018-09-19T16:27:17.488Z,3.30
2018-09-19T16:29:46.029Z,3.40
2018-09-19T16:32:14.354Z,3.57
2018-09-19T16:34:43.789Z,3.57
2018-09-19T16:37:12.426Z,3.53
2018-09-19T16:39:41.071Z,3.70
2018-09-19T16:42:08.901Z,3.53
2018-09-19T16:44:37.427Z,3.10
2018-09-19T16:47:05.980Z,3.17
2018-09-19T16:49:34.623Z,3.20
2018-09-19T16:52:03.263Z,3.07
2018-09-19T16:54:31.890Z,3.43
2018-09-19T16:57:00.520Z,3.80
2018-09-19T16:59:29.144Z,4.00
2018-09-19T17:01:57.616Z,3.80
2018-09-19T17:04:25.990Z,3.40
2018-09-19T17:06:54.472Z,3.33
2018-09-19T17:09:23.127Z,3.10
2018-09-19T17:11:51.512Z,3.73
2018-09-19T17:14:19.751Z,4.20
2018-09-19T17:16:48.395Z,3.50
2018-09-19T17:19:16.638Z,3.80
2018-09-19T17:21:44.899Z,4.37
2018-09-19T17:24:13.151Z,3.50
2018-09-19T17:26:41.369Z,3.37
2018-09-19T17:29:09.970Z,3.77
2018-09-19T17:31:38.510Z,3.37
2018-09-19T17:34:07.107Z,3.70
2018-09-19T17:36:35.567Z,3.53
2018-09-19T17:39:05.198Z,3.53
2018-09-19T17:41:33.832Z,3.60
2018-09-19T17:44:02.286Z,4.07
2018-09-19T17:46:30.880Z,7.20
2018-09-19T17:48:59.565Z,5.70
2018-09-19T17:51:27.951Z,5.13
2018-09-19T17:53:56.396Z,6.03
2018-09-19T17:56:24.831Z,6.67
2018-09-19T17:58:53.159Z,8.57
2018-09-19T18:01:21.742Z,7.47
2018-09-19T18:03:50.351Z,9.67
2018-09-19T18:06:18.862Z,7.50
2018-09-19T18:08:47.199Z,5.83
2018-09-19T18:11:15.656Z,4.67
2018-09-19T18:13:44.113Z,4.37
2018-09-19T18:16:12.765Z,4.43
2018-09-19T18:18:41.386Z,4.13
2018-09-19T18:21:09.618Z,4.33
2018-09-19T18:23:37.440Z,4.10
2018-09-19T18:26:05.324Z,4.33
2018-09-19T18:28:33.143Z,5.00
2018-09-19T18:31:01.644Z,4.20
2018-09-19T18:33:30.267Z,4.93
2018-09-19T18:35:58.912Z,4.60
2018-09-19T18:38:27.332Z,5.27
2018-09-19T18:40:55.786Z,4.53
2018-09-19T18:43:24.580Z,4.63
2018-09-19T18:45:53.055Z,4.43
2018-09-19T18:48:21.673Z,4.80
2018-09-19T18:50:50.096Z,4.20
2018-09-19T18:53:18.969Z,3.67
2018-09-19T18:55:47.579Z,3.90
2018-09-19T18:58:16.011Z,4.33
2018-09-19T19:00:43.863Z,4.87
2018-09-19T19:03:12.523Z,4.47
2018-09-19T19:05:41.187Z,4.60
2018-09-19T19:08:09.804Z,4.17
2018-09-19T19:10:38.443Z,4.23
2018-09-19T19:13:07.108Z,5.20
2018-09-19T19:15:35.560Z,4.20
2018-09-19T19:18:04.187Z,4.40
2018-09-19T19:20:33.142Z,4.77
2018-09-19T19:23:01.938Z,4.43
2018-09-19T19:25:30.698Z,4.43
2018-09-19T19:27:59.399Z,4.33
2018-09-19T19:30:27.959Z,4.50
2018-09-19T19:32:57.211Z,4.47
2018-09-19T19:35:25.895Z,4.93
2018-09-19T19:37:54.613Z,5.60
2018-09-19T19:40:23.156Z,5.33
2018-09-19T19:42:51.820Z,4.77
2018-09-19T19:45:20.475Z,4.40
2018-09-19T19:47:49.254Z,4.10
2018-09-19T19:50:17.921Z,4.43
2018-09-19T19:52:46.943Z,4.07
2018-09-19T19:55:15.558Z,5.30
2018-09-19T19:57:44.452Z,4.47
2018-09-19T20:00:13.224Z,4.37
2018-09-19T20:02:41.866Z,4.70
2018-09-19T20:05:10.548Z,4.70
2018-09-19T20:07:39.134Z,5.07
2018-09-19T20:10:07.781Z,4.20
2018-09-19T20:12:36.685Z,4.27
2018-09-19T20:15:05.152Z,4.93
2018-09-19T20:17:33.616Z,3.87
2018-09-19T20:20:02.214Z,4.53
2018-09-19T20:22:30.853Z,4.97
2018-09-19T20:24:59.233Z,4.73
2018-09-19T20:27:27.719Z,4.70
2018-09-19T20:29:56.489Z,4.60
2018-09-19T20:32:24.735Z,4.67
2018-09-19T20:34:52.983Z,5.40
2018-09-19T20:37:21.669Z,4.60
2018-09-19T20:39:50.296Z,4.80
2018-09-19T20:42:18.777Z,4.60
2018-09-19T20:44:47.548Z,4.60
2018-09-19T20:47:16.088Z,6.03
2018-09-19T20:49:44.685Z,6.07
2018-09-19T20:52:13.298Z,5.37
2018-09-19T20:54:41.741Z,4.90
2018-09-19T20:57:10.363Z,4.90
2018-09-19T20:59:38.854Z,4.90
2018-09-19T21:02:07.482Z,5.40
2018-09-19T21:04:36.173Z,4.60
2018-09-19T21:07:04.460Z,4.57
2018-09-19T21:09:32.955Z,4.63
2018-09-19T21:12:01.577Z,5.50
2018-09-19T21:14:30.139Z,4.83
2018-09-19T21:16:58.762Z,5.07
2018-09-19T21:19:27.080Z,4.70
2018-09-19T21:21:54.938Z,4.27
2018-09-19T21:24:23.464Z,4.73
2018-09-19T21:26:52.104Z,4.60
2018-09-19T21:29:20.503Z,4.40
2018-09-19T21:31:49.110Z,4.63
2018-09-19T21:34:17.730Z,4.50
2018-09-19T21:36:46.003Z,4.63
2018-09-19T21:39:14.655Z,4.93
2018-09-19T21:41:43.048Z,4.37
2018-09-19T21:44:11.297Z,4.90
2018-09-19T21:46:39.772Z,4.23
2018-09-19T21:49:08.193Z,4.50
2018-09-19T21:51:36.842Z,4.40
2018-09-19T21:54:05.467Z,6.33
2018-09-19T21:56:33.864Z,5.30
2018-09-19T21:59:02.350Z,5.03
2018-09-19T22:01:35.971Z,5.23
2018-09-19T22:04:04.531Z,5.27
2018-09-19T22:06:33.098Z,4.90
2018-09-19T22:09:00.935Z,5.33
2018-09-19T22:11:29.455Z,5.27
2018-09-19T22:13:58.330Z,5.40
2018-09-19T22:16:26.920Z,5.37
2018-09-19T22:18:55.565Z,6.03
2018-09-19T22:21:24.027Z,5.03
2018-09-19T22:23:52.653Z,5.43
2018-09-19T22:26:21.278Z,5.27
2018-09-19T22:28:49.927Z,5.50
2018-09-19T22:31:18.317Z,5.17
2018-09-19T22:33:46.796Z,5.87
2018-09-19T22:36:15.208Z,5.03
2018-09-19T22:38:43.815Z,4.73
2018-09-19T22:41:12.371Z,5.63
2018-09-19T22:43:40.772Z,5.70
2018-09-19T22:46:09.459Z,4.80
2018-09-19T22:48:38.018Z,4.67
2018-09-19T22:51:06.273Z,4.70
2018-09-19T22:53:34.616Z,5.00
2018-09-19T22:56:02.923Z,4.23
2018-09-19T22:58:31.310Z,4.33
2018-09-19T23:00:59.820Z,4.90
2018-09-19T23:03:28.461Z,4.73
2018-09-19T23:05:56.895Z,4.53
2018-09-19T23:08:25.530Z,4.60
2018-09-19T23:10:54.432Z,4.90
2018-09-19T23:13:23.011Z,5.57
2018-09-19T23:15:51.653Z,4.77
2018-09-19T23:18:20.260Z,4.90
2018-09-19T23:20:48.696Z,4.83
2018-09-19T23:23:17.163Z,4.70
2018-09-19T23:25:45.791Z,4.40
2018-09-19T23:28:14.422Z,4.77
2018-09-19T23:30:42.871Z,4.57
2018-09-19T23:33:11.503Z,5.30
2018-09-19T23:35:39.948Z,4.77
2018-09-19T23:38:08.577Z,4.80
2018-09-19T23:40:37.189Z,4.60
2018-09-19T23:43:07.076Z,4.97
2018-09-19T23:45:35.663Z,4.87
2018-09-19T23:48:04.112Z,5.00
2018-09-19T23:50:32.739Z,5.60
2018-09-19T23:53:01.165Z,4.80
2018-09-19T23:55:29.387Z,4.87
2018-09-19T23:57:57.916Z,5.13
